Portada
METAR-TAF:

METAR-TAF

Aeropuertos :

Fremont Municipal Airport

Fremont, Nebraska, Estados Unidos

latitud: 41-27N, longitud: 096-31W, altitud: 379 m

Observación

El informe se hizo hace 10 minutos, a las 23:55 UTC
Viento 17 kt del noroeste con ráfagas de 22 kt
Temperatura 25°C
Humedad 34%
Presión 1018 hPa
Visibilidad: 16.1 km
Cielo nuboso a una altura de 11000 ft

METAR: KFET 282355Z AUTO 32017G22KT 10SM BKN110 25/08 A3006 RMK AO2 T02450078 10285 20245

Hora: 19:05 (00:05 UTC)


TAF: falta

Observaciones y pronósticos meteorológicos de más de 4000 aeropuertos (mensajes METAR y TAF).

Los puntos amarillos y rojos representan las estaciones disponibles.

Ponga el ratón en el punto deseado para ver el nombre de la estación.

Haga clic para ver las observaciones y los pronósticos meteorológicos.

Para cambiar el mapa : haga clic en los botones verdes con una cruz de color negro para hacer un zoom, en el botón verde con un guión para alejar o en las flechas verdes para mapas adyacentes.


METAR-TAF: